createdAt,value
2017-11-15T00:01:22.361Z,29.33
2017-11-15T00:03:50.613Z,29.58
2017-11-15T00:06:18.098Z,30.45
2017-11-15T00:08:45.563Z,29.73
2017-11-15T00:11:13.022Z,30.25
2017-11-15T00:13:40.501Z,29.77
2017-11-15T00:16:07.954Z,29.75
2017-11-15T00:18:35.457Z,29.90
2017-11-15T00:21:02.997Z,36.97
2017-11-15T00:23:30.452Z,33.70
2017-11-15T00:25:58.707Z,32.83
2017-11-15T00:28:26.173Z,33.17
2017-11-15T00:30:54.385Z,31.80
2017-11-15T00:33:21.841Z,32.03
2017-11-15T00:35:49.395Z,33.42
2017-11-15T00:38:17.618Z,32.42
2017-11-15T00:40:45.091Z,32.78
2017-11-15T00:43:12.638Z,30.77
2017-11-15T00:45:40.906Z,32.08
2017-11-15T00:48:09.122Z,32.60
2017-11-15T00:50:36.693Z,32.60
2017-11-15T00:53:04.157Z,31.10
2017-11-15T00:55:32.397Z,34.15
2017-11-15T00:57:59.941Z,32.38
2017-11-15T01:00:27.489Z,30.60
2017-11-15T01:02:55.029Z,33.10
2017-11-15T01:05:22.576Z,32.05
2017-11-15T01:07:50.117Z,32.30
2017-11-15T01:10:18.369Z,33.50
2017-11-15T01:12:46.652Z,32.55
2017-11-15T01:15:14.884Z,33.05
2017-11-15T01:17:42.421Z,35.05
2017-11-15T01:20:09.890Z,32.92
2017-11-15T01:22:38.185Z,31.75
2017-11-15T01:25:05.648Z,33.55
2017-11-15T01:27:33.104Z,33.28
2017-11-15T01:30:00.553Z,31.48
2017-11-15T01:32:28.033Z,34.33
2017-11-15T01:34:56.257Z,33.10
2017-11-15T01:37:23.721Z,32.83
2017-11-15T01:39:51.942Z,31.27
2017-11-15T01:42:19.513Z,33.55
2017-11-15T01:44:46.980Z,34.65
2017-11-15T01:47:15.272Z,30.88
2017-11-15T01:49:42.772Z,35.13
2017-11-15T01:52:11.022Z,32.97
2017-11-15T01:54:38.474Z,32.22
2017-11-15T01:57:06.822Z,33.90
2017-11-15T01:59:34.276Z,32.35
2017-11-15T02:02:02.520Z,32.35
2017-11-15T02:04:30.069Z,31.85
2017-11-15T02:06:58.290Z,33.63
2017-11-15T02:09:25.771Z,31.05
2017-11-15T02:11:53.313Z,31.25
2017-11-15T02:14:20.770Z,34.58
2017-11-15T02:16:49.008Z,32.70
2017-11-15T02:19:16.557Z,32.25
2017-11-15T02:21:44.099Z,34.20
2017-11-15T02:24:11.648Z,32.05
2017-11-15T02:26:39.103Z,32.60
2017-11-15T02:29:07.346Z,31.52
2017-11-15T02:31:34.793Z,32.90
2017-11-15T02:34:03.009Z,33.28
2017-11-15T02:36:30.490Z,34.08
2017-11-15T02:38:58.031Z,32.40
2017-11-15T02:41:25.573Z,33.53
2017-11-15T02:43:53.121Z,33.05
2017-11-15T02:46:20.665Z,31.50
2017-11-15T02:48:48.131Z,32.72
2017-11-15T02:51:15.650Z,33.50
2017-11-15T02:53:43.097Z,33.30
2017-11-15T02:56:11.354Z,33.80
2017-11-15T02:58:38.893Z,33.17
2017-11-15T03:01:06.442Z,36.72
2017-11-15T03:03:33.898Z,34.20
2017-11-15T03:06:01.389Z,34.92
2017-11-15T03:08:28.843Z,33.45
2017-11-15T03:10:56.294Z,34.33
2017-11-15T03:13:24.665Z,34.15
2017-11-15T03:15:52.123Z,34.25
2017-11-15T03:18:20.366Z,33.15
2017-11-15T03:20:47.822Z,33.22
2017-11-15T03:23:16.076Z,32.30
2017-11-15T03:25:44.333Z,34.25
2017-11-15T03:28:11.786Z,32.83
2017-11-15T03:30:40.033Z,33.95
2017-11-15T03:33:08.254Z,34.30
2017-11-15T03:35:35.709Z,33.10
2017-11-15T03:38:03.189Z,33.10
2017-11-15T03:40:31.405Z,33.03
2017-11-15T03:42:58.856Z,31.70
2017-11-15T03:45:26.341Z,31.95
2017-11-15T03:47:53.860Z,36.35
2017-11-15T03:50:21.406Z,33.05
2017-11-15T03:52:48.874Z,34.38
2017-11-15T03:55:16.323Z,31.60
2017-11-15T03:57:43.832Z,32.05
2017-11-15T04:00:12.065Z,34.17
2017-11-15T04:02:39.513Z,33.65
2017-11-15T04:05:07.078Z,31.12
2017-11-15T04:07:35.303Z,34.47
2017-11-15T04:10:02.782Z,32.72
2017-11-15T04:12:30.993Z,34.78
2017-11-15T04:14:58.483Z,34.40
2017-11-15T04:17:26.018Z,35.30
2017-11-15T04:19:53.565Z,34.78
2017-11-15T04:22:21.110Z,34.67
2017-11-15T04:24:48.651Z,34.15
2017-11-15T04:27:16.105Z,33.08
2017-11-15T04:29:44.324Z,35.90
2017-11-15T04:32:11.845Z,34.55
2017-11-15T04:34:39.294Z,30.92
2017-11-15T04:37:06.749Z,33.55
2017-11-15T04:39:34.577Z,34.40
2017-11-15T04:42:02.035Z,37.28
2017-11-15T04:44:29.496Z,33.78
2017-11-15T04:46:56.951Z,36.55
2017-11-15T04:49:24.445Z,31.33
2017-11-15T04:51:51.893Z,33.58
2017-11-15T04:54:19.351Z,33.88
2017-11-15T04:56:46.825Z,36.40
2017-11-15T04:59:14.357Z,36.28
2017-11-15T05:01:41.901Z,37.20
2017-11-15T05:04:09.441Z,33.63
2017-11-15T05:06:36.905Z,35.78
2017-11-15T05:09:05.130Z,35.22
2017-11-15T05:11:32.584Z,32.22
2017-11-15T05:14:00.134Z,33.25
2017-11-15T05:16:28.349Z,34.47
2017-11-15T05:18:55.829Z,34.75
2017-11-15T05:21:23.381Z,30.90
2017-11-15T05:23:51.597Z,35.63
2017-11-15T05:26:19.077Z,32.38
2017-11-15T05:28:46.587Z,32.08
2017-11-15T05:31:14.069Z,30.55
2017-11-15T05:33:42.292Z,32.42
2017-11-15T05:36:09.745Z,31.87
2017-11-15T05:38:37.301Z,31.73
2017-11-15T05:41:04.849Z,34.03
2017-11-15T05:43:32.301Z,30.37
2017-11-15T05:46:00.554Z,30.40
2017-11-15T05:48:28.097Z,33.10
2017-11-15T05:50:55.633Z,31.15
2017-11-15T05:53:23.088Z,32.33
2017-11-15T05:55:51.328Z,29.67
2017-11-15T05:58:19.545Z,29.67
2017-11-15T06:00:47.071Z,32.22
2017-11-15T06:03:14.589Z,29.55
2017-11-15T06:05:42.133Z,29.42
2017-11-15T06:08:09.670Z,29.52
2017-11-15T06:10:38.002Z,27.50
2017-11-15T06:13:05.564Z,27.48
2017-11-15T06:15:33.831Z,26.50
2017-11-15T06:18:02.262Z,27.23
2017-11-15T06:20:29.741Z,25.58
2017-11-15T06:22:57.241Z,27.40
2017-11-15T06:25:25.575Z,22.90
2017-11-15T06:27:52.977Z,23.35
2017-11-15T06:30:20.461Z,24.90
2017-11-15T06:32:48.884Z,25.90
2017-11-15T06:35:17.161Z,25.10
2017-11-15T06:37:44.605Z,25.48
2017-11-15T06:40:12.860Z,22.65
2017-11-15T06:42:40.396Z,22.15
2017-11-15T06:45:07.946Z,22.73
2017-11-15T06:47:36.209Z,24.00
2017-11-15T06:50:04.460Z,22.33
2017-11-15T06:52:32.009Z,23.05
2017-11-15T06:54:59.555Z,24.10
2017-11-15T06:57:27.813Z,24.42
2017-11-15T06:59:56.070Z,24.10
2017-11-15T07:02:23.618Z,23.83
2017-11-15T07:04:51.097Z,23.85
2017-11-15T07:07:18.601Z,22.33
2017-11-15T07:09:46.155Z,24.77
2017-11-15T07:12:14.406Z,26.52
2017-11-15T07:14:41.955Z,24.80
2017-11-15T07:17:10.255Z,24.40
2017-11-15T07:19:37.746Z,27.15
2017-11-15T07:22:05.293Z,25.48
2017-11-15T07:24:32.750Z,24.17
2017-11-15T07:27:00.993Z,22.85
2017-11-15T07:29:28.454Z,23.25
2017-11-15T07:31:55.977Z,24.30
2017-11-15T07:34:23.441Z,23.10
2017-11-15T07:36:51.689Z,23.50
2017-11-15T07:39:19.142Z,23.80
2017-11-15T07:41:47.385Z,22.92
2017-11-15T07:44:14.862Z,24.33
2017-11-15T07:46:42.313Z,23.85
2017-11-15T07:49:09.810Z,21.80
2017-11-15T07:51:37.356Z,22.65
2017-11-15T07:54:05.611Z,25.05
2017-11-15T07:56:33.154Z,24.33
2017-11-15T07:59:00.694Z,22.98
2017-11-15T08:01:28.155Z,24.42
2017-11-15T08:03:56.401Z,23.17
2017-11-15T08:06:23.945Z,22.23
2017-11-15T08:08:51.429Z,21.05
2017-11-15T08:11:18.882Z,23.50
2017-11-15T08:13:46.368Z,21.80
2017-11-15T08:16:13.866Z,22.45
2017-11-15T08:18:41.318Z,23.15
2017-11-15T08:21:08.816Z,23.30
2017-11-15T08:23:37.061Z,22.48
2017-11-15T08:26:05.320Z,21.70
2017-11-15T08:28:33.550Z,21.50
2017-11-15T08:31:01.029Z,21.60
2017-11-15T08:33:29.382Z,22.87
2017-11-15T08:35:56.831Z,23.98
2017-11-15T08:38:25.050Z,21.55
2017-11-15T08:40:52.622Z,23.27
2017-11-15T08:43:20.171Z,23.38
2017-11-15T08:45:47.641Z,21.80
2017-11-15T08:48:15.154Z,23.87
2017-11-15T08:50:42.698Z,22.35
2017-11-15T08:53:10.241Z,24.92
2017-11-15T08:55:38.501Z,23.05
2017-11-15T08:58:06.046Z,25.85
2017-11-15T09:00:33.496Z,24.87
2017-11-15T09:03:01.727Z,24.40
2017-11-15T09:05:29.181Z,23.60
2017-11-15T09:07:56.650Z,24.65
2017-11-15T09:10:24.901Z,24.48
2017-11-15T09:12:53.117Z,23.02
2017-11-15T09:15:20.570Z,24.92
2017-11-15T09:17:48.071Z,25.00
2017-11-15T09:20:15.577Z,22.58
2017-11-15T09:22:43.044Z,23.35
2017-11-15T09:25:10.557Z,24.02
2017-11-15T09:27:38.107Z,24.08
2017-11-15T09:30:05.641Z,21.40
2017-11-15T09:32:33.192Z,22.83
2017-11-15T09:35:01.445Z,22.95
2017-11-15T09:37:28.927Z,22.83
2017-11-15T09:39:56.383Z,24.10
2017-11-15T09:42:23.873Z,22.13
2017-11-15T09:44:51.338Z,23.05
2017-11-15T09:47:18.801Z,25.62
2017-11-15T09:49:46.257Z,23.92
2017-11-15T09:52:13.713Z,23.52
2017-11-15T09:54:41.289Z,23.23
2017-11-15T09:57:08.834Z,22.55
2017-11-15T09:59:37.061Z,23.23
2017-11-15T10:02:04.557Z,26.10
2017-11-15T10:04:32.092Z,24.48
2017-11-15T10:07:00.335Z,22.75
2017-11-15T10:09:28.589Z,24.27
2017-11-15T10:11:56.139Z,22.10
2017-11-15T10:14:23.685Z,22.05
2017-11-15T10:16:51.141Z,22.30
2017-11-15T10:19:19.486Z,23.70
2017-11-15T10:21:46.937Z,24.95
2017-11-15T10:24:15.174Z,24.27
2017-11-15T10:26:42.671Z,24.80
2017-11-15T10:29:10.130Z,23.87
2017-11-15T10:31:37.599Z,22.20
2017-11-15T10:34:05.153Z,23.12
2017-11-15T10:36:32.697Z,23.48
2017-11-15T10:39:00.153Z,23.95
2017-11-15T10:41:28.509Z,23.20
2017-11-15T10:43:56.054Z,24.37
2017-11-15T10:46:24.302Z,24.37
2017-11-15T10:48:51.776Z,23.62
2017-11-15T10:51:19.393Z,22.98
2017-11-15T10:53:47.647Z,24.85
2017-11-15T10:56:15.110Z,24.60
2017-11-15T10:58:43.337Z,23.20
2017-11-15T11:01:10.897Z,24.45
2017-11-15T11:03:39.204Z,23.77
2017-11-15T11:06:06.674Z,24.67
2017-11-15T11:08:34.141Z,22.48
2017-11-15T11:11:02.401Z,23.33
2017-11-15T11:13:30.662Z,23.42
2017-11-15T11:15:58.926Z,22.10
2017-11-15T11:18:27.182Z,20.40
2017-11-15T11:20:54.720Z,21.70
2017-11-15T11:23:22.269Z,21.00
2017-11-15T11:25:49.821Z,23.45
2017-11-15T11:28:18.188Z,23.92
2017-11-15T11:30:46.437Z,22.37
2017-11-15T11:33:14.669Z,21.40
2017-11-15T11:35:42.142Z,21.80
2017-11-15T11:38:10.369Z,21.67
2017-11-15T11:40:37.838Z,21.85
2017-11-15T11:43:06.103Z,23.12
2017-11-15T11:45:34.336Z,24.08
2017-11-15T11:48:02.587Z,21.17
2017-11-15T11:50:30.061Z,21.80
2017-11-15T11:52:58.289Z,22.17
2017-11-15T11:55:25.775Z,23.33
2017-11-15T11:57:54.047Z,21.55
2017-11-15T12:00:22.338Z,24.27
2017-11-15T12:02:49.834Z,24.37
2017-11-15T12:05:18.062Z,21.55
2017-11-15T12:07:45.629Z,20.67
2017-11-15T12:10:13.872Z,18.90
2017-11-15T12:12:41.434Z,21.05
2017-11-15T12:15:09.653Z,20.10
2017-11-15T12:17:37.133Z,20.10
2017-11-15T12:20:04.627Z,19.50
2017-11-15T12:22:32.080Z,17.52
2017-11-15T12:24:59.563Z,18.58
2017-11-15T12:27:27.821Z,18.42
2017-11-15T12:29:55.285Z,16.77
2017-11-15T12:32:22.745Z,16.85
2017-11-15T12:34:50.245Z,17.80
2017-11-15T12:37:17.790Z,16.80
2017-11-15T12:39:46.053Z,17.87
2017-11-15T12:42:14.309Z,18.45
2017-11-15T12:44:41.859Z,17.77
2017-11-15T12:47:10.113Z,18.12
2017-11-15T12:49:38.373Z,20.20
2017-11-15T12:52:05.928Z,20.48
2017-11-15T12:54:34.183Z,20.70
2017-11-15T12:57:02.433Z,20.02
2017-11-15T12:59:31.414Z,19.90
2017-11-15T13:01:59.646Z,19.80
2017-11-15T13:04:27.128Z,20.98
2017-11-15T13:06:55.358Z,20.08
2017-11-15T13:09:22.823Z,20.30
2017-11-15T13:11:51.082Z,21.65
2017-11-15T13:14:19.310Z,21.33
2017-11-15T13:16:46.787Z,22.40
2017-11-15T13:19:15.025Z,20.48
2017-11-15T13:21:43.989Z,21.08
2017-11-15T13:24:11.449Z,20.08
2017-11-15T13:26:38.997Z,18.15
2017-11-15T13:29:06.461Z,20.30
2017-11-15T13:31:34.688Z,20.58
2017-11-15T13:34:02.247Z,19.50
2017-11-15T13:36:30.505Z,18.40
2017-11-15T13:38:58.045Z,17.52
2017-11-15T13:41:25.686Z,19.30
2017-11-15T13:43:53.238Z,19.48
2017-11-15T13:46:21.504Z,21.08
2017-11-15T13:48:49.761Z,18.05
2017-11-15T13:51:18.017Z,19.60
2017-11-15T13:53:45.489Z,19.60
2017-11-15T13:56:13.008Z,19.67
2017-11-15T13:58:41.266Z,21.02
2017-11-15T14:01:08.742Z,22.17
2017-11-15T14:03:36.206Z,19.30
2017-11-15T14:06:03.691Z,19.50
2017-11-15T14:08:31.241Z,17.17
2017-11-15T14:10:59.464Z,18.80
2017-11-15T14:13:26.933Z,18.92
2017-11-15T14:15:54.481Z,18.12
2017-11-15T14:18:22.741Z,17.83
2017-11-15T14:20:50.966Z,17.58
2017-11-15T14:23:18.430Z,16.80
2017-11-15T14:25:45.986Z,15.40
2017-11-15T14:28:14.235Z,16.77
2017-11-15T14:30:41.765Z,16.20
2017-11-15T14:33:09.225Z,16.65
2017-11-15T14:35:37.471Z,16.70
2017-11-15T14:38:05.029Z,17.70
2017-11-15T14:40:32.506Z,16.83
2017-11-15T14:43:00.028Z,18.23
2017-11-15T14:45:28.281Z,17.00
2017-11-15T14:47:56.549Z,18.62
2017-11-15T14:50:24.901Z,18.27
2017-11-15T14:52:53.165Z,18.60
2017-11-15T14:55:21.518Z,18.80
2017-11-15T14:57:48.977Z,18.15
2017-11-15T15:00:17.220Z,18.80
2017-11-15T15:02:45.585Z,18.10
2017-11-15T15:05:13.849Z,17.45
2017-11-15T15:07:42.108Z,20.52
2017-11-15T15:10:10.375Z,17.60
2017-11-15T15:12:38.612Z,19.77
2017-11-15T15:15:06.066Z,19.58
2017-11-15T15:17:33.562Z,19.77
2017-11-15T15:20:01.021Z,20.08
2017-11-15T15:22:28.497Z,19.05
2017-11-15T15:24:56.859Z,19.25
2017-11-15T15:27:25.089Z,18.17
2017-11-15T15:29:52.569Z,19.73
2017-11-15T15:32:20.801Z,19.25
2017-11-15T15:34:48.415Z,18.95
2017-11-15T15:37:15.881Z,21.80
2017-11-15T15:39:43.457Z,19.85
2017-11-15T15:42:11.710Z,20.73
2017-11-15T15:44:39.965Z,20.05
2017-11-15T15:47:07.517Z,19.37
2017-11-15T15:49:35.777Z,20.12
2017-11-15T15:52:04.037Z,18.87
2017-11-15T15:54:32.290Z,18.50
2017-11-15T15:56:59.745Z,19.58
2017-11-15T15:59:27.982Z,19.25
2017-11-15T16:01:56.210Z,19.00
2017-11-15T16:04:23.685Z,21.33
2017-11-15T16:06:51.241Z,19.02
2017-11-15T16:09:19.466Z,19.12
2017-11-15T16:11:46.962Z,18.73
2017-11-15T16:14:14.422Z,20.08
2017-11-15T16:16:41.889Z,20.25
2017-11-15T16:19:09.357Z,18.65
2017-11-15T16:21:36.910Z,19.70
2017-11-15T16:24:05.165Z,18.30
2017-11-15T16:26:32.621Z,20.00
2017-11-15T16:29:00.877Z,19.75
2017-11-15T16:31:29.105Z,21.37
2017-11-15T16:33:56.562Z,20.35
2017-11-15T16:36:24.037Z,20.23
2017-11-15T16:38:51.495Z,20.02
2017-11-15T16:41:18.997Z,18.45
2017-11-15T16:43:47.256Z,19.42
2017-11-15T16:46:15.489Z,18.33
2017-11-15T16:48:42.957Z,20.92
2017-11-15T16:51:10.433Z,20.48
2017-11-15T16:53:37.946Z,19.45
2017-11-15T16:56:06.202Z,20.73
2017-11-15T16:58:33.753Z,18.95
2017-11-15T17:01:01.978Z,18.55
2017-11-15T17:03:29.441Z,19.65
2017-11-15T17:05:56.989Z,18.60
2017-11-15T17:08:24.540Z,19.08
2017-11-15T17:10:52.801Z,18.27
2017-11-15T17:13:21.085Z,18.33
2017-11-15T17:15:48.577Z,18.87
2017-11-15T17:18:16.144Z,18.35
2017-11-15T17:20:44.400Z,17.20
2017-11-15T17:23:11.945Z,19.33
2017-11-15T17:25:40.164Z,17.98
2017-11-15T17:28:07.685Z,19.20
2017-11-15T17:30:35.146Z,20.05
2017-11-15T17:33:02.609Z,19.25
2017-11-15T17:35:30.086Z,19.73
2017-11-15T17:37:58.329Z,21.58
2017-11-15T17:40:25.793Z,20.50
2017-11-15T17:42:54.139Z,23.38
2017-11-15T17:45:22.397Z,20.85
2017-11-15T17:47:49.857Z,20.77
2017-11-15T17:50:18.093Z,23.10
2017-11-15T17:52:45.649Z,19.42
2017-11-15T17:55:13.905Z,19.15
2017-11-15T17:57:41.446Z,19.77
2017-11-15T18:00:08.914Z,19.65
2017-11-15T18:02:36.397Z,19.05
2017-11-15T18:05:03.862Z,18.85
2017-11-15T18:07:31.413Z,17.62
2017-11-15T18:09:58.969Z,19.83
2017-11-15T18:12:27.193Z,19.23
2017-11-15T18:14:54.876Z,20.50
2017-11-15T18:17:23.100Z,19.40
2017-11-15T18:19:50.669Z,20.20
2017-11-15T18:22:18.145Z,20.42
2017-11-15T18:24:45.653Z,19.67
2017-11-15T18:27:13.150Z,19.58
2017-11-15T18:29:40.644Z,19.08
2017-11-15T18:32:08.897Z,19.87
2017-11-15T18:34:36.446Z,19.62
2017-11-15T18:37:04.665Z,19.75
2017-11-15T18:39:32.128Z,19.42
2017-11-15T18:41:59.602Z,19.12
2017-11-15T18:44:27.117Z,18.15
2017-11-15T18:46:54.586Z,17.80
2017-11-15T18:49:22.860Z,17.87
2017-11-15T18:51:50.379Z,18.73
2017-11-15T18:54:18.630Z,18.80
2017-11-15T18:56:46.929Z,19.10
2017-11-15T18:59:14.475Z,19.08
2017-11-15T19:01:42.003Z,18.17
2017-11-15T19:04:09.586Z,16.92
2017-11-15T19:06:37.124Z,17.17
2017-11-15T19:09:04.703Z,16.70
2017-11-15T19:11:32.228Z,18.25
2017-11-15T19:13:59.853Z,17.05
2017-11-15T19:16:27.501Z,17.92
2017-11-15T19:18:56.037Z,16.95
2017-11-15T19:21:23.956Z,18.30
2017-11-15T19:23:51.917Z,17.35
2017-11-15T19:26:19.798Z,16.98
2017-11-15T19:28:48.463Z,16.05
2017-11-15T19:31:16.415Z,16.73
2017-11-15T19:33:44.371Z,15.52
2017-11-15T19:36:12.305Z,14.20
2017-11-15T19:38:40.150Z,14.32
2017-11-15T19:41:08.026Z,14.13
2017-11-15T19:43:35.982Z,14.68
2017-11-15T19:46:03.930Z,14.40
2017-11-15T19:48:31.884Z,14.80
2017-11-15T19:50:59.841Z,13.88
2017-11-15T19:53:27.788Z,15.18
2017-11-15T19:55:55.620Z,14.70
2017-11-15T19:58:23.592Z,13.07
2017-11-15T20:00:51.444Z,13.70
2017-11-15T20:03:19.397Z,14.38
2017-11-15T20:05:47.569Z,14.13
2017-11-15T20:08:16.426Z,12.45
2017-11-15T20:10:44.283Z,14.10
2017-11-15T20:13:12.338Z,14.45
2017-11-15T20:15:40.257Z,13.32
2017-11-15T20:18:08.055Z,14.02
2017-11-15T20:20:36.118Z,13.48
2017-11-15T20:23:04.883Z,12.40
2017-11-15T20:25:32.835Z,12.43
2017-11-15T20:28:00.866Z,14.10
2017-11-15T20:30:28.740Z,14.87
2017-11-15T20:32:56.591Z,13.80
2017-11-15T20:35:24.441Z,13.77
2017-11-15T20:37:52.393Z,12.73
2017-11-15T20:40:20.245Z,13.50
2017-11-15T20:42:48.205Z,13.27
2017-11-15T20:45:16.051Z,12.55
2017-11-15T20:47:43.900Z,13.15
2017-11-15T20:50:11.594Z,13.80
2017-11-15T20:52:39.396Z,13.18
2017-11-15T20:55:07.036Z,13.65
2017-11-15T20:57:34.658Z,12.90
2017-11-15T21:00:02.296Z,12.23
2017-11-15T21:02:29.878Z,13.18
2017-11-15T21:04:57.444Z,13.18
2017-11-15T21:07:24.992Z,12.55
2017-11-15T21:09:52.499Z,13.38
2017-11-15T21:12:20.009Z,13.38
2017-11-15T21:14:48.318Z,13.32
2017-11-15T21:17:15.782Z,12.80
2017-11-15T21:19:43.270Z,12.70
2017-11-15T21:22:10.790Z,13.13
2017-11-15T21:24:39.028Z,12.18
2017-11-15T21:27:06.593Z,13.15
2017-11-15T21:29:34.856Z,13.55
2017-11-15T21:32:03.113Z,12.65
2017-11-15T21:34:31.358Z,13.80
2017-11-15T21:36:59.641Z,12.85
2017-11-15T21:39:27.949Z,14.50
2017-11-15T21:41:55.554Z,13.55
2017-11-15T21:44:23.088Z,12.10
2017-11-15T21:46:50.542Z,13.80
2017-11-15T21:49:18.777Z,14.20
2017-11-15T21:51:47.756Z,14.63
2017-11-15T21:54:16.230Z,12.68
2017-11-15T21:56:44.601Z,13.05
2017-11-15T21:59:12.847Z,13.75
2017-11-15T22:01:40.392Z,13.00
2017-11-15T22:04:08.046Z,12.68
2017-11-15T22:09:11.105Z,14.13
2017-11-15T22:11:38.681Z,13.60
2017-11-15T22:14:06.892Z,13.38
2017-11-15T22:16:34.369Z,12.93
2017-11-15T22:19:02.609Z,14.00
2017-11-15T22:21:30.065Z,14.68
2017-11-15T22:23:58.337Z,16.05
2017-11-15T22:26:26.609Z,16.62
2017-11-15T22:28:54.113Z,16.52
2017-11-15T22:31:21.597Z,17.73
2017-11-15T22:33:49.491Z,17.35
2017-11-15T22:36:16.945Z,19.95
2017-11-15T22:38:45.182Z,19.80
2017-11-15T22:41:12.662Z,18.73
2017-11-15T22:43:40.910Z,19.90
2017-11-15T22:46:08.487Z,19.15
2017-11-15T22:48:36.698Z,19.25
2017-11-15T22:51:04.211Z,18.33
2017-11-15T22:53:31.710Z,19.52
2017-11-15T22:55:59.966Z,18.92
2017-11-15T22:58:27.514Z,19.65
2017-11-15T23:00:55.741Z,22.30
2017-11-15T23:03:23.313Z,18.05
2017-11-15T23:05:50.820Z,20.40
2017-11-15T23:08:18.282Z,17.95
2017-11-15T23:10:45.737Z,19.67
2017-11-15T23:13:13.997Z,19.27
2017-11-15T23:15:42.261Z,19.50
2017-11-15T23:18:09.725Z,18.60
2017-11-15T23:20:37.187Z,19.02
2017-11-15T23:23:04.645Z,18.98
2017-11-15T23:25:32.109Z,18.90
2017-11-15T23:28:00.365Z,19.67
2017-11-15T23:30:27.930Z,19.58
2017-11-15T23:32:55.385Z,17.12
2017-11-15T23:35:23.642Z,17.95
2017-11-15T23:37:51.884Z,18.00
2017-11-15T23:40:19.433Z,17.08
2017-11-15T23:42:46.976Z,17.75
2017-11-15T23:45:14.437Z,18.27
2017-11-15T23:47:42.733Z,18.17
2017-11-15T23:50:10.276Z,17.87
2017-11-15T23:52:37.741Z,17.00
2017-11-15T23:55:05.205Z,16.25
2017-11-15T23:57:32.685Z,16.75
